Time;durP1;ratioP1;P1;durP2;ratioP2;P2;SDS_P1;SDS_P2;PMS_P1;PMS_P2;Temp;Humidity;BMP_temperature;BMP_pressure;BME280_temperature;BME280_humidity;BME280_pressure;Samples;Min_cycle;Max_cycle;Signal;HPM_P1;HPM_P2
2023/08/16 02:14:37;;;;;;;2.17;1.05;;;;;;;12.16;100.00;100953.81;5920624;23;20038;-96
2023/08/16 18:41:18;;;;;;;8.45;1.60;;;;;;;22.46;66.00;100880.72;5236375;23;20026;-96
2023/08/16 18:43:50;;;;;;;3.65;1.17;;;;;;;22.53;64.08;100880.91;4917490;23;20041;-96
2023/08/16 18:46:23;;;;;;;2.08;0.77;;;;;;;22.44;70.66;100874.81;4890299;29;20036;-96
2023/08/16 18:48:49;;;;;;;2.45;0.80;;;;;;;22.39;71.13;100885.78;4903269;29;20187;-96
2023/08/16 18:51:27;;;;;;;4.13;0.70;;;;;;;22.27;72.54;100875.69;4933609;23;20029;-96
2023/08/16 19:16:52;;;;;;;1.48;0.73;;;;;;;21.57;70.03;100894.75;4933018;29;20040;-96
2023/08/16 19:19:24;;;;;;;4.93;0.80;;;;;;;21.60;66.35;100894.44;4931131;29;20047;-96
2023/08/16 19:21:50;;;;;;;3.50;0.85;;;;;;;21.58;67.67;100891.13;5176380;23;20511;-96
2023/08/16 19:24:19;;;;;;;1.00;0.60;;;;;;;21.38;64.59;100885.16;4911218;29;20048;-96
2023/08/16 19:26:46;;;;;;;3.90;0.80;;;;;;;21.29;66.78;100892.13;4914345;29;20093;-96
2023/08/16 19:29:15;;;;;;;3.17;0.90;;;;;;;21.29;66.87;100893.94;4916943;29;20021;-96
2023/08/16 19:44:37;;;;;;;1.13;0.65;;;;;;;21.15;61.49;100900.47;4914140;29;20045;-96
2023/08/16 19:47:02;;;;;;;1.55;0.60;;;;;;;21.02;61.98;100906.06;4910964;29;20168;-96
2023/08/16 19:49:28;;;;;;;1.75;0.60;;;;;;;20.95;60.89;100913.69;4910228;29;20032;-96
2023/08/16 19:51:54;;;;;;;1.42;0.55;;;;;;;20.94;61.73;100906.75;4908613;29;20423;-96
2023/08/16 19:54:40;;;;;;;1.20;0.68;;;;;;;20.88;60.03;100915.22;4937737;29;20024;-96
2023/08/16 19:57:05;;;;;;;3.25;1.08;;;;;;;20.88;62.22;100915.22;4925612;29;20044;-96
2023/08/16 19:59:31;;;;;;;4.40;0.60;;;;;;;20.78;60.63;100914.44;4914974;29;20440;-96
2023/08/16 20:04:26;;;;;;;3.65;0.80;;;;;;;20.77;65.08;100923.25;5433006;23;20023;-96
2023/08/16 20:06:52;;;;;;;1.88;0.52;;;;;;;20.80;62.59;100927.41;4903985;29;20036;-96
2023/08/16 20:35:38;;;;;;;1.67;0.47;;;;;;;20.60;58.08;100932.69;5388692;23;20053;-96
2023/08/16 20:50:59;;;;;;;2.88;0.90;;;;;;;20.12;59.25;100932.69;5063634;23;20127;-96
2023/08/16 20:56:00;;;;;;;3.15;0.75;;;;;;;20.00;59.35;100937.28;5039591;23;20072;-96
2023/08/16 20:58:26;;;;;;;4.60;0.68;;;;;;;19.99;61.46;100933.81;4934407;29;20056;-96
2023/08/16 21:00:54;;;;;;;2.17;0.90;;;;;;;19.91;61.54;100931.06;4924330;29;20032;-96
2023/08/16 21:03:20;;;;;;;1.45;0.70;;;;;;;19.85;61.37;100935.06;4931863;29;20470;-96
2023/08/16 21:05:45;;;;;;;1.92;0.60;;;;;;;19.84;61.55;100932.56;4924396;29;20016;-96
2023/08/16 21:16:08;;;;;;;3.20;0.65;;;;;;;19.78;60.39;100928.69;5647458;23;20059;-96
2023/08/16 21:18:34;;;;;;;1.75;0.63;;;;;;;19.56;61.23;100932.34;4925944;29;20016;-96
2023/08/16 21:26:09;;;;;;;2.25;0.98;;;;;;;19.44;59.80;100943.91;5901409;23;20634;-96
2023/08/16 21:28:35;;;;;;;1.67;0.80;;;;;;;19.59;58.71;100937.31;4900095;29;20040;-96
2023/08/16 21:31:00;;;;;;;1.73;0.70;;;;;;;19.70;57.54;100932.94;4899276;29;20594;-96
2023/08/16 21:33:25;;;;;;;1.92;0.50;;;;;;;19.51;59.22;100929.31;4927795;29;20510;-96
2023/08/16 21:35:55;;;;;;;6.50;1.00;;;;;;;19.43;61.64;100937.00;4899239;29;20029;-96
2023/08/16 21:38:21;;;;;;;1.70;0.70;;;;;;;19.38;63.04;100936.56;4898385;29;20111;-96
2023/08/16 21:40:46;;;;;;;6.15;0.80;;;;;;;19.24;61.10;100938.59;4912647;29;20121;-96
2023/08/16 21:43:13;;;;;;;1.77;0.68;;;;;;;19.32;59.26;100939.72;4912147;29;20060;-96
2023/08/16 21:45:38;;;;;;;2.60;0.65;;;;;;;19.26;60.94;100938.44;4906757;29;20035;-96
2023/08/16 21:48:06;;;;;;;7.80;1.38;;;;;;;19.37;59.00;100932.31;4910340;29;20088;-96
2023/08/16 22:00:56;;;;;;;4.80;0.95;;;;;;;19.24;59.52;100920.28;5096297;23;20077;-96
2023/08/16 22:05:57;;;;;;;5.18;0.90;;;;;;;19.33;60.11;100923.03;5702409;23;20055;-96
2023/08/16 22:08:22;;;;;;;4.50;0.77;;;;;;;19.22;61.05;100924.81;4928950;29;20029;-96
2023/08/16 22:10:48;;;;;;;1.58;0.57;;;;;;;19.21;61.30;100928.38;4897390;29;20117;-96
2023/08/16 22:13:14;;;;;;;3.22;0.68;;;;;;;19.12;62.86;100934.41;4898222;29;20028;-96
2023/08/16 22:15:39;;;;;;;1.98;0.70;;;;;;;18.91;63.63;100931.00;4928707;29;20093;-96
2023/08/16 22:18:05;;;;;;;2.47;0.70;;;;;;;18.91;63.09;100925.78;4897054;29;20033;-96
2023/08/16 22:20:30;;;;;;;2.58;0.77;;;;;;;18.89;64.37;100925.91;4928533;29;20124;-96
2023/08/16 22:22:56;;;;;;;3.00;0.73;;;;;;;18.89;62.93;100930.31;4897119;29;20036;-96
2023/08/16 22:25:21;;;;;;;2.75;1.00;;;;;;;18.91;63.33;100923.16;4928864;29;20025;-96
2023/08/16 22:27:47;;;;;;;2.72;1.10;;;;;;;18.97;63.16;100926.09;4927627;29;20028;-95
2023/08/16 22:30:12;;;;;;;5.80;0.93;;;;;;;18.94;65.04;100925.50;4897186;29;20033;-96
2023/08/16 22:32:38;;;;;;;1.38;0.80;;;;;;;18.74;65.22;100935.84;4897244;29;20021;-96
2023/08/16 22:35:04;;;;;;;1.65;0.75;;;;;;;18.56;66.61;100926.94;4929497;29;20395;-96
2023/08/16 22:37:29;;;;;;;3.33;0.75;;;;;;;18.64;66.11;100923.69;4929488;29;20028;-95
2023/08/16 22:39:55;;;;;;;1.98;0.80;;;;;;;18.55;65.53;100930.50;4901336;29;20044;-96
2023/08/16 22:42:21;;;;;;;6.25;0.98;;;;;;;18.50;66.86;100923.03;4901766;29;20036;-95
2023/08/16 22:44:47;;;;;;;5.38;0.88;;;;;;;18.54;66.21;100913.97;4900632;29;20031;-96
2023/08/16 22:47:12;;;;;;;5.70;1.00;;;;;;;18.49;66.37;100910.94;4932584;29;20031;-96
2023/08/16 22:49:38;;;;;;;3.55;0.90;;;;;;;18.36;67.41;100915.50;4932035;29;20063;-96
2023/08/16 22:52:03;;;;;;;2.20;1.00;;;;;;;18.28;67.40;100913.53;4900376;29;20029;-96
2023/08/16 22:54:29;;;;;;;3.92;0.80;;;;;;;18.19;67.95;100909.03;4899743;29;20471;-96
2023/08/16 22:56:54;;;;;;;5.05;0.85;;;;;;;18.07;68.66;100913.50;4900575;29;20028;-95
2023/08/16 22:59:21;;;;;;;2.65;1.00;;;;;;;18.10;68.69;100909.81;4900262;29;20032;-96
2023/08/16 23:01:46;;;;;;;1.85;0.82;;;;;;;18.01;69.36;100908.78;4900282;29;20024;-95
2023/08/16 23:04:12;;;;;;;3.35;0.80;;;;;;;18.02;69.44;100906.97;4900055;29;20032;-95
2023/08/16 23:06:37;;;;;;;2.30;0.82;;;;;;;17.96;70.27;100906.53;4931306;29;20028;-96
2023/08/16 23:09:03;;;;;;;4.03;1.38;;;;;;;17.86;70.92;100897.78;4930968;29;20021;-95
2023/08/16 23:11:28;;;;;;;7.22;1.20;;;;;;;17.92;71.68;100899.06;4901065;29;20080;-95
2023/08/16 23:13:53;;;;;;;9.25;1.33;;;;;;;17.83;71.80;100895.44;4899873;29;20084;-96
2023/08/16 23:16:19;;;;;;;2.08;1.10;;;;;;;17.96;71.66;100890.84;4900053;29;20060;-95
2023/08/16 23:18:44;;;;;;;2.75;0.93;;;;;;;17.90;71.90;100883.53;4901357;29;20480;-96
2023/08/16 23:21:09;;;;;;;4.15;0.90;;;;;;;17.91;72.28;100886.97;4931525;29;20033;-96
2023/08/16 23:23:35;;;;;;;2.78;0.98;;;;;;;17.80;73.25;100880.03;4931444;29;20024;-96
2023/08/16 23:26:00;;;;;;;2.80;0.88;;;;;;;17.73;73.67;100882.25;4901018;29;20551;-96
2023/08/16 23:28:26;;;;;;;6.35;1.23;;;;;;;17.75;73.82;100882.97;4931287;29;20033;-96
2023/08/16 23:30:51;;;;;;;4.18;1.33;;;;;;;17.87;73.44;100889.00;4899435;29;20036;-95
2023/08/16 23:33:17;;;;;;;5.47;1.17;;;;;;;17.73;74.45;100876.22;4900840;29;20096;-95
2023/08/16 23:35:43;;;;;;;7.28;1.02;;;;;;;17.74;74.99;100877.88;4930775;29;20036;-96
2023/08/16 23:38:09;;;;;;;4.35;1.15;;;;;;;17.68;75.39;100875.72;4899844;29;20029;-95
2023/08/16 23:40:34;;;;;;;6.40;1.23;;;;;;;17.68;75.73;100886.16;4931415;29;20024;-95
2023/08/16 23:43:00;;;;;;;5.07;1.70;;;;;;;17.64;76.46;100885.59;4931199;29;20032;-96
2023/08/16 23:45:25;;;;;;;3.53;1.55;;;;;;;17.62;76.92;100890.09;4930379;29;20047;-96
2023/08/16 23:47:51;;;;;;;3.53;1.20;;;;;;;17.65;76.71;100878.59;4898824;29;20017;-96
2023/08/16 23:50:16;;;;;;;4.57;1.48;;;;;;;17.59;76.87;100889.53;4930532;29;20028;-95
2023/08/16 23:52:41;;;;;;;4.15;1.02;;;;;;;17.59;77.47;100885.16;4930735;29;20034;-96
2023/08/16 23:55:08;;;;;;;12.25;1.35;;;;;;;17.59;77.54;100879.09;4930780;29;20025;-96
2023/08/16 23:57:34;;;;;;;2.60;1.33;;;;;;;17.52;77.95;100881.38;4930444;29;20124;-96
